Gorch Fock — DRAX — position and weather

sailwx.info

Track history (hours):
 
Tides and Currents Weather Stations Pressure Air Temp Water Temp Dewpoint Dewpoint Depression Visibility Wind Speed Wind Dir Waves Ship Positions

Gorch Fock (Germany)

Ship's website: http://www.marine.de/01DB070000000001/CurrentBaseLink/W2698K4S188INFODE

Last reported at 2014-Dec-20 17:21 UTC. Time now 2014-Dec-22 04:15 UTC.
Position N 54°21' E 010°09'.

Length 89 m; draft 5.4 m.

Type: Sailing vessel. MMSI: 211210280.

Date/timePositionNaut miles runAvg speedWind from/ knotsBaromVisibWave heightAir tempDewpointWater temp
2014-Dec-20 17:21N 54°21' E 010°09'0 0.0
2014-Dec-20 16:33N 54°21' E 010°09'0 0.0
2014-Dec-20 15:30N 54°21' E 010°09'0 0.0
2014-Dec-20 13:33N 54°21' E 010°09'0 0.0
2014-Dec-20 12:33N 54°21' E 010°09'0 0.0
2014-Dec-20 11:33N 54°21' E 010°09'0 0.0
2014-Dec-20 10:33N 54°21' E 010°09'0 0.0
2014-Dec-20 09:33N 54°21' E 010°09'0 0.0
2014-Dec-20 08:33N 54°21' E 010°09'0 0.0
2014-Dec-20 07:33N 54°21' E 010°09'0 0.0
2014-Dec-20 06:33N 54°21' E 010°09'0 0.0
2014-Dec-20 05:33N 54°21' E 010°09'0 0.0
2014-Dec-20 04:33N 54°21' E 010°09'0 0.0
2014-Dec-20 03:33N 54°21' E 010°09'0 0.0
2014-Dec-20 02:33N 54°21' E 010°09'0 0.0
2014-Dec-20 01:33N 54°21' E 010°09'0 0.0
2014-Dec-20 00:33N 54°21' E 010°09'0 0.0
2014-Dec-19 23:33N 54°21' E 010°09'0 0.0
2014-Dec-19 22:33N 54°21' E 010°09'0 0.0
2014-Dec-19 21:33N 54°21' E 010°09'0 0.0
2014-Dec-19 20:33N 54°21' E 010°09'0 0.0
2014-Dec-19 19:33N 54°21' E 010°09'0 0.0
2014-Dec-19 18:33N 54°21' E 010°09'0 0.0
2014-Dec-19 17:33N 54°21' E 010°09'0 0.0
2014-Dec-19 16:33N 54°21' E 010°09'0 0.0
2014-Dec-19 15:33N 54°21' E 010°09'0 0.0
2014-Dec-19 14:33N 54°21' E 010°09'0 0.0
2014-Dec-19 13:30N 54°21' E 010°09'0 0.0
2014-Dec-19 12:33N 54°21' E 010°09'0 0.0
2014-Dec-19 11:33N 54°21' E 010°09'0 0.0
2014-Dec-19 10:33N 54°21' E 010°09'0 0.0
2014-Dec-19 09:33N 54°21' E 010°09'2 1.6
2014-Dec-19 08:33N 54°22' E 010°11'1 0.7
2014-Dec-19 07:33N 54°23' E 010°11'0 0.0
2014-Dec-19 06:33N 54°23' E 010°11'0 0.0
2014-Dec-19 05:33N 54°23' E 010°11'0 0.0
2014-Dec-19 04:33N 54°23' E 010°11'0 0.0
2014-Dec-19 03:33N 54°23' E 010°11'0 0.0
2014-Dec-19 02:33N 54°23' E 010°11'0 0.0
2014-Dec-19 01:33N 54°23' E 010°11'0 0.0
2014-Dec-19 00:33N 54°23' E 010°11'0 0.0
2014-Dec-18 23:33N 54°23' E 010°11'0 0.0
2014-Dec-18 22:33N 54°23' E 010°11'0 0.0
2014-Dec-18 21:33N 54°23' E 010°11'0 0.0
2014-Dec-18 20:33N 54°23' E 010°11'0 0.0
2014-Dec-18 19:33N 54°23' E 010°11'0 0.0
2014-Dec-18 18:33N 54°23' E 010°11'0 0.0
2014-Dec-18 17:33N 54°23' E 010°11'0 0.0
2014-Dec-18 16:30N 54°23' E 010°11'0 0.0
2014-Dec-18 15:33N 54°23' E 010°11'0 0.0
2014-Dec-18 14:33N 54°23' E 010°11'0 0.0
2014-Dec-18 13:33N 54°23' E 010°11'0 0.0
2014-Dec-18 12:33N 54°23' E 010°11'0 0.0
2014-Dec-18 11:33N 54°23' E 010°11'0 0.0
2014-Dec-18 10:33N 54°23' E 010°11'0 0.0
2014-Dec-18 09:33N 54°23' E 010°11'0 0.0
2014-Dec-18 08:33N 54°23' E 010°11'0 0.0
2014-Dec-18 07:33N 54°23' E 010°11'0 0.0
2014-Dec-18 06:33N 54°23' E 010°11'0 0.0
2014-Dec-18 05:33N 54°23' E 010°11'0 0.0
2014-Dec-18 04:33N 54°23' E 010°11'0 0.0
2014-Dec-18 03:33N 54°23' E 010°11'0 0.0
2014-Dec-18 02:33N 54°23' E 010°11'0 0.0
2014-Dec-18 01:33N 54°23' E 010°11'0 0.0
2014-Dec-18 00:33N 54°23' E 010°11'0 0.0
2014-Dec-17 23:33N 54°23' E 010°11'0 0.0
2014-Dec-17 22:33N 54°23' E 010°11'0 0.0
2014-Dec-17 21:33N 54°23' E 010°11'0 0.0
2014-Dec-17 20:33N 54°23' E 010°11'0 0.0
2014-Dec-17 19:33N 54°23' E 010°11'0 0.0
2014-Dec-17 18:33N 54°23' E 010°11'0 0.0
2014-Dec-17 17:33N 54°23' E 010°11'0 0.0
2014-Dec-17 16:33N 54°23' E 010°11'0 0.0
2014-Dec-17 15:33N 54°23' E 010°11'1 1.4
2014-Dec-17 14:33N 54°24' E 010°12'8 8.0
2014-Dec-17 13:33N 54°31' E 010°20'7 7.0
2014-Dec-17 12:33N 54°34' E 010°31'9 8.5
2014-Dec-17 11:32N 54°35' E 010°46'17 7.0
2014-Dec-17 09:05N 54°52' E 010°52'81 8.5
2014-Dec-16 23:33N 56°12' E 011°17'9 7.9
2014-Dec-16 22:25N 56°20' E 011°24'18 7.5
2014-Dec-16 20:04N 56°35' E 011°40'4 7.7
2014-Dec-16 19:33N 56°39' E 011°44'8 7.9
2014-Dec-16 18:33N 56°45' E 011°52'6 6.3
2014-Dec-16 17:33N 56°51' E 011°48'7 7.0
2014-Dec-16 16:33N 56°57' E 011°42'8 7.9
2014-Dec-16 15:33N 57°05' E 011°37'8 7.8
2014-Dec-16 14:33N 57°12' E 011°33'7 7.0
2014-Dec-16 13:33N 57°19' E 011°28'9 7.2
2014-Dec-16 12:18N 57°26' E 011°18'5 7.3
2014-Dec-16 11:33N 57°28' E 011°09'18 4.4
2014-Dec-16 07:24N 57°24' E 010°36'0 0.0
2014-Dec-15 23:18N 57°24' E 010°36'0 0.0
2014-Dec-15 17:06N 57°24' E 010°36'0 0.0
2014-Dec-15 16:24N 57°24' E 010°36'0 0.0
2014-Dec-15 15:18N 57°24' E 010°36'0 0.0
2014-Dec-15 13:30N 57°24' E 010°36'0 0.0
2014-Dec-15 12:30N 57°24' E 010°36'0 0.0
2014-Dec-15 11:30N 57°24' E 010°36'0 0.0
2014-Dec-15 10:30N 57°24' E 010°36'0 0.0
2014-Dec-15 09:33N 57°24' E 010°36'0 0.0
2014-Dec-15 08:33N 57°24' E 010°36'0 0.0
2014-Dec-15 07:30N 57°24' E 010°36'0 0.0
2014-Dec-15 06:09N 57°24' E 010°36'0 0.0
2014-Dec-15 02:24N 57°24' E 010°36'3 0.2
2014-Dec-14 12:26N 57°25' E 010°40'5 5.6
2014-Dec-14 11:34N 57°27' E 010°49'6 5.9
2014-Dec-14 10:33N 57°29' E 010°59'6 6.0
2014-Dec-14 09:33N 57°32' E 011°09'3 2.6
2014-Dec-14 08:33N 57°32' E 011°14'4 3.6
2014-Dec-14 07:34N 57°29' E 011°18'4 3.8
2014-Dec-14 06:33N 57°31' E 011°12'4 4.0
2014-Dec-14 05:33N 57°34' E 011°08'4 3.9
2014-Dec-14 04:33N 57°37' E 011°02'3 3.2
2014-Dec-14 03:33N 57°39' E 010°57'3 3.4
2014-Dec-14 02:33N 57°41' E 010°53'2 2.1
2014-Dec-14 01:33N 57°39' E 010°53'4 3.8
2014-Dec-14 00:33N 57°36' E 010°56'3 2.9
2014-Dec-13 23:34N 57°33' E 010°58'3 2.8
2014-Dec-13 22:34N 57°30' E 011°01'3 2.8
2014-Dec-13 21:33N 57°28' E 011°04'2 2.1
2014-Dec-13 20:33N 57°30' E 011°02'2 2.5
2014-Dec-13 19:33N 57°32' E 011°01'3 3.0
2014-Dec-13 18:33N 57°35' E 010°59'3 3.5
2014-Dec-13 17:33N 57°39' E 010°57'4 3.6
2014-Dec-13 16:33N 57°35' E 010°55'3 3.1
2014-Dec-13 15:33N 57°32' E 010°54'3 3.2
2014-Dec-13 14:34N 57°29' E 010°55'0 0.2
2014-Dec-13 13:33N 57°29' E 010°55'3 3.0
2014-Dec-13 12:33N 57°32' E 010°55'3 3.4
2014-Dec-13 11:34N 57°36' E 010°55'4 4.1
2014-Dec-13 10:33N 57°40' E 010°54'3 2.6
2014-Dec-13 09:34N 57°42' E 010°52'4 4.2
2014-Dec-13 08:32N 57°38' E 010°51'4 4.4
2014-Dec-13 07:33N 57°34' E 010°51'6 5.6
2014-Dec-13 06:33N 57°28' E 010°52'3 2.8
2014-Dec-13 05:24N 57°31' E 010°51'2 1.8
2014-Dec-13 04:32N 57°33' E 010°49'3 2.6
2014-Dec-13 03:30N 57°35' E 010°47'3 3.3
2014-Dec-13 02:31N 57°37' E 010°43'4 4.1
2014-Dec-13 01:33N 57°34' E 010°46'4 4.2
2014-Dec-13 00:33N 57°30' E 010°50'1 1.1
2014-Dec-12 23:33N 57°29' E 010°49'3 3.4
2014-Dec-12 22:33N 57°33' E 010°50'3 2.8
2014-Dec-12 21:33N 57°35' E 010°52'3 2.9
2014-Dec-12 20:33N 57°38' E 010°53'2 1.7
2014-Dec-12 19:33N 57°40' E 010°53'1 1.3
2014-Dec-12 18:34N 57°41' E 010°54'1 1.3
2014-Dec-12 17:33N 57°41' E 010°57'0 0.3
2014-Dec-12 16:34N 57°40' E 010°57'1 0.9
2014-Dec-12 15:33N 57°40' E 010°58'3 3.0
2014-Dec-12 14:33N 57°38' E 011°02'5 5.0
2014-Dec-12 13:33N 57°34' E 011°09'1 1.2
2014-Dec-12 12:33N 57°33' E 011°08'3 2.5
2014-Dec-12 11:34N 57°34' E 011°03'4 3.5
2014-Dec-12 10:33N 57°35' E 010°57'4 4.1
2014-Dec-12 09:33N 57°35' E 010°49'3 3.3
2014-Dec-12 08:33N 57°36' E 010°43'3 3.4
2014-Dec-12 07:33N 57°34' E 010°48'5 4.7
2014-Dec-12 06:33N 57°31' E 010°55'2 1.7
2014-Dec-12 05:34N 57°30' E 010°58'3 3.1
2014-Dec-12 04:34N 57°32' E 010°54'3 3.1
2014-Dec-12 03:33N 57°34' E 010°49'2 2.2
2014-Dec-12 02:33N 57°34' E 010°45'6 5.8
2014-Dec-12 01:33N 57°31' E 010°54'3 3.4
2014-Dec-12 00:33N 57°28' E 010°58'4 3.6
2014-Dec-11 23:33N 57°31' E 010°53'3 3.1
2014-Dec-11 22:34N 57°33' E 010°49'3 3.2
2014-Dec-11 21:33N 57°35' E 010°44'4 3.0
2014-Dec-11 20:13N 57°38' E 010°43'4 6.0
2014-Dec-11 19:34N 57°42' E 010°46'5 5.2
2014-Dec-11 18:34N 57°45' E 010°53'6 6.1
2014-Dec-11 17:34N 57°51' E 010°58'6 5.5
2014-Dec-11 16:34N 57°56' E 011°01'4 4.1
2014-Dec-11 15:34N 57°53' E 011°05'3 3.1
2014-Dec-11 14:34N 57°52' E 010°59'4 4.1
2014-Dec-11 13:34N 57°53' E 010°51'5 4.5
2014-Dec-11 12:34N 57°54' E 010°43'6 5.8
2014-Dec-11 11:34N 57°53' E 010°32'10 9.7
2014-Dec-11 10:33N 57°49' E 010°15'7110.0
2014-Dec-11 03:26N 57°18' E 008°16'1611.9
2014-Dec-11 02:05N 57°06' E 007°56'  
Track history (hours):
 
Tides and Currents Weather Stations Pressure Air Temp Water Temp Dewpoint Dewpoint Depression Visibility Wind Speed Wind Dir Waves Ship Positions

Gorch Fock (Germany)

Ship's website: http://www.marine.de/01DB070000000001/CurrentBaseLink/W2698K4S188INFODE

Last reported at 2014-Dec-20 17:21 UTC. Time now 2014-Dec-22 04:15 UTC.
Position N 54°21' E 010°09'.

Length 89 m; draft 5.4 m.

Type: Sailing vessel. MMSI: 211210280.

Date/timePositionNaut miles runAvg speedWind from/ knotsBaromVisibWave heightAir tempDewpointWater temp
2014-Dec-20 17:21N 54°21' E 010°09'0 0.0
2014-Dec-20 16:33N 54°21' E 010°09'0 0.0
2014-Dec-20 15:30N 54°21' E 010°09'0 0.0
2014-Dec-20 13:33N 54°21' E 010°09'0 0.0
2014-Dec-20 12:33N 54°21' E 010°09'0 0.0
2014-Dec-20 11:33N 54°21' E 010°09'0 0.0
2014-Dec-20 10:33N 54°21' E 010°09'0 0.0
2014-Dec-20 09:33N 54°21' E 010°09'0 0.0
2014-Dec-20 08:33N 54°21' E 010°09'0 0.0
2014-Dec-20 07:33N 54°21' E 010°09'0 0.0
2014-Dec-20 06:33N 54°21' E 010°09'0 0.0
2014-Dec-20 05:33N 54°21' E 010°09'0 0.0
2014-Dec-20 04:33N 54°21' E 010°09'0 0.0
2014-Dec-20 03:33N 54°21' E 010°09'0 0.0
2014-Dec-20 02:33N 54°21' E 010°09'0 0.0
2014-Dec-20 01:33N 54°21' E 010°09'0 0.0
2014-Dec-20 00:33N 54°21' E 010°09'0 0.0
2014-Dec-19 23:33N 54°21' E 010°09'0 0.0
2014-Dec-19 22:33N 54°21' E 010°09'0 0.0
2014-Dec-19 21:33N 54°21' E 010°09'0 0.0
2014-Dec-19 20:33N 54°21' E 010°09'0 0.0
2014-Dec-19 19:33N 54°21' E 010°09'0 0.0
2014-Dec-19 18:33N 54°21' E 010°09'0 0.0
2014-Dec-19 17:33N 54°21' E 010°09'0 0.0
2014-Dec-19 16:33N 54°21' E 010°09'0 0.0
2014-Dec-19 15:33N 54°21' E 010°09'0 0.0
2014-Dec-19 14:33N 54°21' E 010°09'0 0.0
2014-Dec-19 13:30N 54°21' E 010°09'0 0.0
2014-Dec-19 12:33N 54°21' E 010°09'0 0.0
2014-Dec-19 11:33N 54°21' E 010°09'0 0.0
2014-Dec-19 10:33N 54°21' E 010°09'0 0.0
2014-Dec-19 09:33N 54°21' E 010°09'2 1.6
2014-Dec-19 08:33N 54°22' E 010°11'1 0.7
2014-Dec-19 07:33N 54°23' E 010°11'0 0.0
2014-Dec-19 06:33N 54°23' E 010°11'0 0.0
2014-Dec-19 05:33N 54°23' E 010°11'0 0.0
2014-Dec-19 04:33N 54°23' E 010°11'0 0.0
2014-Dec-19 03:33N 54°23' E 010°11'0 0.0
2014-Dec-19 02:33N 54°23' E 010°11'0 0.0
2014-Dec-19 01:33N 54°23' E 010°11'0 0.0
2014-Dec-19 00:33N 54°23' E 010°11'0 0.0
2014-Dec-18 23:33N 54°23' E 010°11'0 0.0
2014-Dec-18 22:33N 54°23' E 010°11'0 0.0
2014-Dec-18 21:33N 54°23' E 010°11'0 0.0
2014-Dec-18 20:33N 54°23' E 010°11'0 0.0
2014-Dec-18 19:33N 54°23' E 010°11'0 0.0
2014-Dec-18 18:33N 54°23' E 010°11'0 0.0
2014-Dec-18 17:33N 54°23' E 010°11'0 0.0
2014-Dec-18 16:30N 54°23' E 010°11'0 0.0
2014-Dec-18 15:33N 54°23' E 010°11'0 0.0
2014-Dec-18 14:33N 54°23' E 010°11'0 0.0
2014-Dec-18 13:33N 54°23' E 010°11'0 0.0
2014-Dec-18 12:33N 54°23' E 010°11'0 0.0
2014-Dec-18 11:33N 54°23' E 010°11'0 0.0
2014-Dec-18 10:33N 54°23' E 010°11'0 0.0
2014-Dec-18 09:33N 54°23' E 010°11'0 0.0
2014-Dec-18 08:33N 54°23' E 010°11'0 0.0
2014-Dec-18 07:33N 54°23' E 010°11'0 0.0
2014-Dec-18 06:33N 54°23' E 010°11'0 0.0
2014-Dec-18 05:33N 54°23' E 010°11'0 0.0
2014-Dec-18 04:33N 54°23' E 010°11'0 0.0
2014-Dec-18 03:33N 54°23' E 010°11'0 0.0
2014-Dec-18 02:33N 54°23' E 010°11'0 0.0
2014-Dec-18 01:33N 54°23' E 010°11'0 0.0
2014-Dec-18 00:33N 54°23' E 010°11'0 0.0
2014-Dec-17 23:33N 54°23' E 010°11'0 0.0
2014-Dec-17 22:33N 54°23' E 010°11'0 0.0
2014-Dec-17 21:33N 54°23' E 010°11'0 0.0
2014-Dec-17 20:33N 54°23' E 010°11'0 0.0
2014-Dec-17 19:33N 54°23' E 010°11'0 0.0
2014-Dec-17 18:33N 54°23' E 010°11'0 0.0
2014-Dec-17 17:33N 54°23' E 010°11'0 0.0
2014-Dec-17 16:33N 54°23' E 010°11'0 0.0
2014-Dec-17 15:33N 54°23' E 010°11'1 1.4
2014-Dec-17 14:33N 54°24' E 010°12'8 8.0
2014-Dec-17 13:33N 54°31' E 010°20'7 7.0
2014-Dec-17 12:33N 54°34' E 010°31'9 8.5
2014-Dec-17 11:32N 54°35' E 010°46'17 7.0
2014-Dec-17 09:05N 54°52' E 010°52'81 8.5
2014-Dec-16 23:33N 56°12' E 011°17'9 7.9
2014-Dec-16 22:25N 56°20' E 011°24'18 7.5
2014-Dec-16 20:04N 56°35' E 011°40'4 7.7
2014-Dec-16 19:33N 56°39' E 011°44'8 7.9
2014-Dec-16 18:33N 56°45' E 011°52'6 6.3
2014-Dec-16 17:33N 56°51' E 011°48'7 7.0
2014-Dec-16 16:33N 56°57' E 011°42'8 7.9
2014-Dec-16 15:33N 57°05' E 011°37'8 7.8
2014-Dec-16 14:33N 57°12' E 011°33'7 7.0
2014-Dec-16 13:33N 57°19' E 011°28'9 7.2
2014-Dec-16 12:18N 57°26' E 011°18'5 7.3
2014-Dec-16 11:33N 57°28' E 011°09'18 4.4
2014-Dec-16 07:24N 57°24' E 010°36'0 0.0
2014-Dec-15 23:18N 57°24' E 010°36'0 0.0
2014-Dec-15 17:06N 57°24' E 010°36'0 0.0
2014-Dec-15 16:24N 57°24' E 010°36'0 0.0
2014-Dec-15 15:18N 57°24' E 010°36'0 0.0
2014-Dec-15 13:30N 57°24' E 010°36'0 0.0
2014-Dec-15 12:30N 57°24' E 010°36'0 0.0
2014-Dec-15 11:30N 57°24' E 010°36'0 0.0
2014-Dec-15 10:30N 57°24' E 010°36'0 0.0
2014-Dec-15 09:33N 57°24' E 010°36'0 0.0
2014-Dec-15 08:33N 57°24' E 010°36'0 0.0
2014-Dec-15 07:30N 57°24' E 010°36'0 0.0
2014-Dec-15 06:09N 57°24' E 010°36'0 0.0
2014-Dec-15 02:24N 57°24' E 010°36'3 0.2
2014-Dec-14 12:26N 57°25' E 010°40'5 5.6
2014-Dec-14 11:34N 57°27' E 010°49'6 5.9
2014-Dec-14 10:33N 57°29' E 010°59'6 6.0
2014-Dec-14 09:33N 57°32' E 011°09'3 2.6
2014-Dec-14 08:33N 57°32' E 011°14'4 3.6
2014-Dec-14 07:34N 57°29' E 011°18'4 3.8
2014-Dec-14 06:33N 57°31' E 011°12'4 4.0
2014-Dec-14 05:33N 57°34' E 011°08'4 3.9
2014-Dec-14 04:33N 57°37' E 011°02'3 3.2
2014-Dec-14 03:33N 57°39' E 010°57'3 3.4
2014-Dec-14 02:33N 57°41' E 010°53'2 2.1
2014-Dec-14 01:33N 57°39' E 010°53'4 3.8
2014-Dec-14 00:33N 57°36' E 010°56'3 2.9
2014-Dec-13 23:34N 57°33' E 010°58'3 2.8
2014-Dec-13 22:34N 57°30' E 011°01'3 2.8
2014-Dec-13 21:33N 57°28' E 011°04'2 2.1
2014-Dec-13 20:33N 57°30' E 011°02'2 2.5
2014-Dec-13 19:33N 57°32' E 011°01'3 3.0
2014-Dec-13 18:33N 57°35' E 010°59'3 3.5
2014-Dec-13 17:33N 57°39' E 010°57'4 3.6
2014-Dec-13 16:33N 57°35' E 010°55'3 3.1
2014-Dec-13 15:33N 57°32' E 010°54'3 3.2
2014-Dec-13 14:34N 57°29' E 010°55'0 0.2
2014-Dec-13 13:33N 57°29' E 010°55'3 3.0
2014-Dec-13 12:33N 57°32' E 010°55'3 3.4
2014-Dec-13 11:34N 57°36' E 010°55'4 4.1
2014-Dec-13 10:33N 57°40' E 010°54'3 2.6
2014-Dec-13 09:34N 57°42' E 010°52'4 4.2
2014-Dec-13 08:32N 57°38' E 010°51'4 4.4
2014-Dec-13 07:33N 57°34' E 010°51'6 5.6
2014-Dec-13 06:33N 57°28' E 010°52'3 2.8
2014-Dec-13 05:24N 57°31' E 010°51'2 1.8
2014-Dec-13 04:32N 57°33' E 010°49'3 2.6
2014-Dec-13 03:30N 57°35' E 010°47'3 3.3
2014-Dec-13 02:31N 57°37' E 010°43'4 4.1
2014-Dec-13 01:33N 57°34' E 010°46'4 4.2
2014-Dec-13 00:33N 57°30' E 010°50'1 1.1
2014-Dec-12 23:33N 57°29' E 010°49'3 3.4
2014-Dec-12 22:33N 57°33' E 010°50'3 2.8
2014-Dec-12 21:33N 57°35' E 010°52'3 2.9
2014-Dec-12 20:33N 57°38' E 010°53'2 1.7
2014-Dec-12 19:33N 57°40' E 010°53'1 1.3
2014-Dec-12 18:34N 57°41' E 010°54'1 1.3
2014-Dec-12 17:33N 57°41' E 010°57'0 0.3
2014-Dec-12 16:34N 57°40' E 010°57'1 0.9
2014-Dec-12 15:33N 57°40' E 010°58'3 3.0
2014-Dec-12 14:33N 57°38' E 011°02'5 5.0
2014-Dec-12 13:33N 57°34' E 011°09'1 1.2
2014-Dec-12 12:33N 57°33' E 011°08'3 2.5
2014-Dec-12 11:34N 57°34' E 011°03'4 3.5
2014-Dec-12 10:33N 57°35' E 010°57'4 4.1
2014-Dec-12 09:33N 57°35' E 010°49'3 3.3
2014-Dec-12 08:33N 57°36' E 010°43'3 3.4
2014-Dec-12 07:33N 57°34' E 010°48'5 4.7
2014-Dec-12 06:33N 57°31' E 010°55'2 1.7
2014-Dec-12 05:34N 57°30' E 010°58'3 3.1
2014-Dec-12 04:34N 57°32' E 010°54'3 3.1
2014-Dec-12 03:33N 57°34' E 010°49'2 2.2
2014-Dec-12 02:33N 57°34' E 010°45'6 5.8
2014-Dec-12 01:33N 57°31' E 010°54'3 3.4
2014-Dec-12 00:33N 57°28' E 010°58'4 3.6
2014-Dec-11 23:33N 57°31' E 010°53'3 3.1
2014-Dec-11 22:34N 57°33' E 010°49'3 3.2
2014-Dec-11 21:33N 57°35' E 010°44'4 3.0
2014-Dec-11 20:13N 57°38' E 010°43'4 6.0
2014-Dec-11 19:34N 57°42' E 010°46'5 5.2
2014-Dec-11 18:34N 57°45' E 010°53'6 6.1
2014-Dec-11 17:34N 57°51' E 010°58'6 5.5
2014-Dec-11 16:34N 57°56' E 011°01'4 4.1
2014-Dec-11 15:34N 57°53' E 011°05'3 3.1
2014-Dec-11 14:34N 57°52' E 010°59'4 4.1
2014-Dec-11 13:34N 57°53' E 010°51'5 4.5
2014-Dec-11 12:34N 57°54' E 010°43'6 5.8
2014-Dec-11 11:34N 57°53' E 010°32'10 9.7
2014-Dec-11 10:33N 57°49' E 010°15'7110.0
2014-Dec-11 03:26N 57°18' E 008°16'1611.9
2014-Dec-11 02:05N 57°06' E 007°56'  

Dump ship's entire track history